Time;durP1;ratioP1;P1;durP2;ratioP2;P2;SDS_P1;SDS_P2;PMS_P1;PMS_P2;Temp;Humidity;BMP_temperature;BMP_pressure;BME280_temperature;BME280_humidity;BME280_pressure;Samples;Min_cycle;Max_cycle;Signal;HPM_P1;HPM_P2
2022/10/04 00:01:48;;;;;;;28.47;14.70;;;10.00;79.70;;;;;;5026949;28;20467;-74
2022/10/04 00:04:22;;;;;;;30.43;17.20;;;10.10;79.70;;;;;;5023681;28;21400;-75
2022/10/04 00:06:57;;;;;;;29.27;17.47;;;10.10;79.60;;;;;;5028591;28;20554;-74
2022/10/04 00:09:30;;;;;;;11.00;6.33;;;10.10;79.60;;;;;;5032127;28;20538;-75
2022/10/04 00:12:01;;;;;;;14.40;5.80;;;10.10;79.60;;;;;;5038415;28;21395;-75
2022/10/04 00:14:32;;;;;;;17.23;7.23;;;10.10;79.30;;;;;;5027012;28;20459;-75
2022/10/04 00:17:10;;;;;;;9.73;5.93;;;10.10;79.20;;;;;;5025285;28;20479;-75
2022/10/04 00:19:42;;;;;;;12.23;6.07;;;10.10;79.30;;;;;;5025243;28;21380;-74
2022/10/04 00:22:19;;;;;;;12.60;5.90;;;10.00;79.30;;;;;;5025190;28;20467;-75
2022/10/04 00:25:17;;;;;;;11.97;5.43;;;10.00;79.30;;;;;;5021027;28;20548;-75
2022/10/04 00:28:27;;;;;;;11.57;5.40;;;10.00;79.30;;;;;;5016679;28;20530;-76
2022/10/04 00:31:17;;;;;;;12.83;5.13;;;10.00;79.20;;;;;;5023784;28;20799;-75
2022/10/04 00:33:47;;;;;;;10.57;4.87;;;10.00;79.20;;;;;;5025749;28;20451;-74
2022/10/04 00:36:45;;;;;;;11.10;6.07;;;10.00;79.20;;;;;;5024921;28;20452;-73
2022/10/04 00:39:26;;;;;;;11.60;5.40;;;10.00;79.20;;;;;;5029323;28;20447;-73
2022/10/04 00:42:03;;;;;;;15.30;6.57;;;9.90;79.20;;;;;;5024294;28;20463;-74
2022/10/04 00:44:38;;;;;;;13.47;7.03;;;9.90;79.30;;;;;;5024897;28;20573;-74
2022/10/04 00:47:19;;;;;;;17.03;7.50;;;9.90;79.60;;;;;;5026700;28;20498;-74
2022/10/04 00:49:51;;;;;;;21.47;11.17;;;10.00;79.60;;;;;;5027424;28;20451;-74
2022/10/04 00:52:22;;;;;;;27.90;12.30;;;10.00;79.60;;;;;;5029353;28;20464;-75
2022/10/04 00:54:52;;;;;;;25.17;11.90;;;10.00;79.60;;;;;;5025769;28;20464;-73
2022/10/04 00:57:24;;;;;;;21.50;10.90;;;10.00;79.60;;;;;;5028443;28;20479;-73
2022/10/04 00:59:56;;;;;;;20.30;10.47;;;10.00;79.60;;;;;;5025593;28;20517;-74
2022/10/04 01:02:30;;;;;;;20.00;10.10;;;10.00;79.60;;;;;;5023411;28;20491;-74
2022/10/04 01:05:02;;;;;;;18.83;8.13;;;10.00;79.60;;;;;;5024563;28;20446;-74
2022/10/04 01:07:36;;;;;;;17.07;8.30;;;10.00;79.70;;;;;;5024265;28;20472;-74
2022/10/04 01:10:09;;;;;;;18.30;9.07;;;10.00;79.80;;;;;;5025336;28;20443;-73
2022/10/04 01:12:44;;;;;;;12.73;7.27;;;10.00;79.90;;;;;;5029494;28;20464;-74
2022/10/04 01:15:22;;;;;;;17.50;7.17;;;10.10;80.00;;;;;;5024190;28;20557;-74
2022/10/04 01:18:07;;;;;;;18.80;8.13;;;10.10;79.90;;;;;;5027428;28;20498;-75
2022/10/04 01:20:39;;;;;;;15.27;6.50;;;10.10;80.00;;;;;;5026443;28;20490;-74
2022/10/04 01:23:11;;;;;;;12.30;5.57;;;10.10;80.00;;;;;;5034029;28;20461;-74
2022/10/04 01:25:51;;;;;;;9.43;5.63;;;10.10;80.10;;;;;;5026501;28;20506;-75
2022/10/04 01:28:19;;;;;;;19.00;4.70;;;10.10;80.10;;;;;;5025875;28;21020;-74
2022/10/04 01:30:48;;;;;;;10.50;4.70;;;10.10;80.10;;;;;;5024338;28;20479;-74
2022/10/04 01:33:16;;;;;;;27.70;4.40;;;10.10;80.10;;;;;;5025159;28;20583;-75
2022/10/04 01:35:44;;;;;;;12.03;5.07;;;10.10;80.10;;;;;;5023232;28;20464;-74
2022/10/04 01:38:14;;;;;;;13.47;5.80;;;10.00;80.20;;;;;;5024661;28;20491;-74
2022/10/04 01:40:48;;;;;;;12.60;4.60;;;10.10;80.30;;;;;;5024519;28;20480;-74
2022/10/04 01:43:23;;;;;;;17.20;5.17;;;10.10;80.40;;;;;;5023717;28;21110;-73
2022/10/04 01:45:55;;;;;;;22.40;6.53;;;10.10;80.50;;;;;;5023292;28;20487;-75
2022/10/04 01:48:27;;;;;;;18.77;8.93;;;10.10;80.40;;;;;;5023415;28;20247;-74
2022/10/04 01:51:00;;;;;;;29.80;7.50;;;10.00;80.40;;;;;;5027415;28;20696;-74
2022/10/04 01:53:31;;;;;;;33.97;12.23;;;10.00;80.50;;;;;;5025071;28;20435;-76
2022/10/04 01:56:08;;;;;;;42.53;15.37;;;10.00;80.40;;;;;;5023985;28;20495;-75
2022/10/04 01:58:42;;;;;;;48.33;15.37;;;10.00;80.40;;;;;;5024311;28;20898;-75
2022/10/04 02:01:14;;;;;;;39.30;15.30;;;9.90;80.50;;;;;;5025210;28;20482;-74
2022/10/04 02:03:47;;;;;;;13.03;6.83;;;9.90;80.50;;;;;;5022909;28;20471;-75
2022/10/04 02:06:16;;;;;;;10.03;5.60;;;9.90;80.50;;;;;;5020476;28;20452;-74
2022/10/04 02:08:50;;;;;;;17.97;5.57;;;9.90;80.50;;;;;;5027078;28;20547;-74
2022/10/04 02:11:20;;;;;;;15.10;4.67;;;9.90;80.60;;;;;;5022556;28;20570;-74
2022/10/04 02:13:52;;;;;;;9.40;5.53;;;9.90;80.70;;;;;;5023424;28;21337;-75
2022/10/04 02:16:23;;;;;;;7.97;4.60;;;9.90;80.70;;;;;;5025487;28;20467;-74
2022/10/04 02:18:52;;;;;;;8.90;4.57;;;9.90;80.60;;;;;;5026398;28;20451;-75
2022/10/04 02:21:22;;;;;;;9.20;5.13;;;9.90;80.70;;;;;;5024574;28;20475;-74
2022/10/04 02:23:53;;;;;;;8.00;4.30;;;9.90;80.70;;;;;;5024005;28;20193;-74
2022/10/04 02:26:21;;;;;;;32.03;7.63;;;9.90;80.80;;;;;;5022885;28;20464;-75
2022/10/04 02:28:49;;;;;;;21.07;7.80;;;9.90;80.70;;;;;;5024311;28;20516;-73
2022/10/04 02:34:07;;;;;;;20.57;9.90;;;9.90;80.60;;;;;;5024942;28;20448;-74
2022/10/04 02:36:36;;;;;;;18.93;8.93;;;9.80;80.70;;;;;;5021770;28;20483;-74
2022/10/04 02:39:10;;;;;;;18.10;7.30;;;9.90;80.80;;;;;;5022728;28;20914;-73
2022/10/04 02:41:43;;;;;;;13.67;6.50;;;9.90;80.80;;;;;;5022834;28;20515;-74
2022/10/04 02:44:16;;;;;;;15.27;7.77;;;9.90;80.90;;;;;;5023875;28;20918;-75
2022/10/04 02:46:50;;;;;;;15.77;7.90;;;9.90;80.80;;;;;;5024430;28;20494;-75
2022/10/04 02:49:26;;;;;;;15.33;7.07;;;9.90;80.80;;;;;;5025882;28;20461;-74
2022/10/04 02:52:01;;;;;;;22.03;7.50;;;9.90;80.90;;;;;;5022501;28;20463;-74
2022/10/04 02:54:36;;;;;;;13.03;6.87;;;9.90;80.80;;;;;;5022462;28;20589;-75
2022/10/04 02:57:04;;;;;;;17.40;7.40;;;9.90;80.90;;;;;;5026786;28;20476;-74
2022/10/04 02:59:33;;;;;;;25.90;10.20;;;9.90;80.90;;;;;;5024282;28;20455;-75
2022/10/04 03:02:19;;;;;;;16.37;6.80;;;9.90;80.90;;;;;;5028792;28;20589;-75
2022/10/04 03:05:01;;;;;;;11.80;6.03;;;9.90;80.90;;;;;;5022725;28;20539;-73
2022/10/04 03:07:32;;;;;;;62.47;23.97;;;9.90;81.00;;;;;;5026664;28;20236;-75
2022/10/04 03:10:07;;;;;;;42.37;12.73;;;10.00;81.00;;;;;;5025411;28;20457;-75
2022/10/04 03:12:37;;;;;;;19.70;6.53;;;9.90;80.90;;;;;;5025592;28;20462;-75
2022/10/04 03:15:07;;;;;;;20.53;7.50;;;9.90;80.90;;;;;;5023955;28;20495;-74
2022/10/04 03:17:35;;;;;;;22.17;8.67;;;9.80;80.80;;;;;;5025171;28;20541;-75
2022/10/04 03:20:05;;;;;;;22.17;11.25;;;9.80;80.80;;;;;;5024655;28;20515;-75
2022/10/04 03:22:33;;;;;;;39.70;16.10;;;9.70;80.90;;;;;;5022598;28;20682;-75
2022/10/04 03:25:03;;;;;;;23.17;9.37;;;9.70;81.00;;;;;;5026520;28;20565;-75
2022/10/04 03:27:34;;;;;;;17.13;6.70;;;9.70;81.10;;;;;;5025042;28;20518;-74
2022/10/04 03:30:02;;;;;;;12.50;6.40;;;9.70;81.20;;;;;;5029295;28;20491;-75
2022/10/04 03:32:31;;;;;;;14.17;6.60;;;9.80;81.20;;;;;;5021413;28;21019;-75
2022/10/04 03:35:02;;;;;;;10.90;6.50;;;9.80;81.20;;;;;;5013421;28;20475;-75
2022/10/04 03:37:34;;;;;;;11.80;6.33;;;9.80;81.30;;;;;;5023889;28;20479;-75
2022/10/04 03:40:08;;;;;;;9.07;5.20;;;9.80;81.20;;;;;;5026722;28;20521;-75
2022/10/04 03:42:37;;;;;;;10.00;5.80;;;9.80;81.30;;;;;;5021334;28;21608;-75
2022/10/04 03:45:11;;;;;;;11.30;5.53;;;9.80;81.30;;;;;;5027775;28;20193;-75
2022/10/04 03:47:41;;;;;;;11.93;4.87;;;9.80;81.40;;;;;;5027895;28;20487;-74
2022/10/04 03:50:16;;;;;;;9.93;5.17;;;9.80;81.30;;;;;;5027841;28;20464;-74
2022/10/04 03:52:49;;;;;;;8.17;4.57;;;9.80;81.30;;;;;;5027455;28;21148;-74
2022/10/04 03:55:20;;;;;;;14.03;4.00;;;9.80;81.30;;;;;;5025488;28;20452;-73
2022/10/04 03:57:48;;;;;;;18.40;7.23;;;9.80;81.30;;;;;;5022423;28;20905;-74
2022/10/04 04:00:18;;;;;;;20.77;9.27;;;9.80;81.20;;;;;;5026711;28;20526;-74
2022/10/04 04:02:51;;;;;;;26.20;14.53;;;9.80;81.30;;;;;;5027839;28;20240;-73
2022/10/04 04:05:23;;;;;;;21.17;10.43;;;9.80;81.20;;;;;;5035647;28;21130;-74
2022/10/04 04:07:59;;;;;;;18.37;8.03;;;9.70;81.20;;;;;;5029209;28;20491;-73
2022/10/04 04:10:31;;;;;;;24.00;6.90;;;9.70;81.30;;;;;;5024760;28;20531;-74
2022/10/04 04:13:03;;;;;;;11.33;5.43;;;9.70;81.30;;;;;;5025329;28;20521;-74
2022/10/04 04:15:33;;;;;;;14.40;6.10;;;9.70;81.30;;;;;;5026708;28;20909;-75
2022/10/04 04:18:05;;;;;;;9.20;5.00;;;9.70;81.40;;;;;;5026521;28;20487;-74
2022/10/04 04:20:35;;;;;;;16.63;5.30;;;9.70;81.30;;;;;;5029329;28;20472;-74
2022/10/04 04:23:12;;;;;;;10.20;6.50;;;9.70;81.40;;;;;;5024052;28;20563;-73
2022/10/04 04:25:44;;;;;;;18.17;6.20;;;9.70;81.50;;;;;;5026782;28;20456;-73
2022/10/04 04:28:21;;;;;;;10.63;4.73;;;9.70;81.50;;;;;;5029186;28;20491;-74
2022/10/04 04:30:53;;;;;;;7.67;3.73;;;9.70;81.50;;;;;;5026635;28;20473;-73
2022/10/04 04:33:28;;;;;;;6.60;3.43;;;9.70;81.50;;;;;;5024483;28;20897;-74
2022/10/04 04:36:04;;;;;;;6.50;3.80;;;9.70;81.60;;;;;;5026021;28;20468;-73
2022/10/04 04:38:34;;;;;;;5.50;3.20;;;9.70;81.50;;;;;;5027189;28;20834;-74
2022/10/04 04:41:10;;;;;;;7.40;3.97;;;9.70;81.60;;;;;;5025889;28;20464;-73
2022/10/04 04:43:43;;;;;;;14.23;4.07;;;9.80;81.60;;;;;;5014619;28;20988;-73
2022/10/04 04:46:12;;;;;;;31.33;4.30;;;9.80;81.70;;;;;;5025934;28;20498;-74
2022/10/04 04:49:01;;;;;;;7.73;3.93;;;9.80;81.60;;;;;;5025124;28;20502;-74
2022/10/04 04:51:31;;;;;;;40.70;5.50;;;9.80;81.60;;;;;;5024996;28;20487;-75
2022/10/04 04:54:02;;;;;;;52.27;10.70;;;9.80;81.50;;;;;;5024253;28;20441;-73
2022/10/04 04:56:32;;;;;;;37.63;8.30;;;9.70;81.30;;;;;;5021269;28;20460;-74
2022/10/04 04:59:04;;;;;;;36.40;10.87;;;9.70;81.40;;;;;;5030234;28;20464;-74
2022/10/04 05:01:35;;;;;;;18.87;6.07;;;9.60;81.50;;;;;;5025221;28;20910;-75
2022/10/04 05:04:05;;;;;;;21.27;9.10;;;9.60;81.50;;;;;;5029542;28;20476;-75
2022/10/04 05:06:35;;;;;;;22.73;6.63;;;9.60;81.60;;;;;;5022002;28;20961;-75
2022/10/04 05:09:04;;;;;;;23.70;7.47;;;9.50;81.50;;;;;;5023733;28;21328;-75
2022/10/04 05:11:38;;;;;;;13.83;5.67;;;9.50;81.60;;;;;;5027568;28;20941;-75
2022/10/04 05:14:09;;;;;;;10.80;5.30;;;9.40;81.60;;;;;;5025712;28;20448;-75
2022/10/04 05:16:41;;;;;;;9.23;4.50;;;9.40;81.60;;;;;;5039613;28;20551;-76
2022/10/04 05:19:16;;;;;;;16.17;4.73;;;9.40;81.80;;;;;;5035895;28;20972;-75
2022/10/04 05:21:46;;;;;;;13.13;4.83;;;9.40;81.80;;;;;;5034454;28;21145;-74
2022/10/04 05:24:21;;;;;;;31.13;5.87;;;9.40;81.90;;;;;;5026563;28;20698;-75
2022/10/04 05:26:57;;;;;;;19.73;5.00;;;9.50;81.90;;;;;;5022030;28;21150;-73
2022/10/04 05:29:28;;;;;;;9.03;4.53;;;9.40;81.80;;;;;;5025192;28;20961;-73
2022/10/04 05:32:04;;;;;;;9.10;5.38;;;9.40;81.70;;;;;;5021360;28;21247;-73
2022/10/04 05:34:39;;;;;;;9.13;5.30;;;9.40;81.90;;;;;;5023361;28;20635;-73
2022/10/04 05:37:28;;;;;;;8.10;4.72;;;9.50;82.00;;;;;;5027698;28;20509;-74
2022/10/04 05:40:05;;;;;;;7.50;4.20;;;9.50;82.00;;;;;;5021324;28;20208;-73
2022/10/04 05:42:40;;;;;;;7.50;4.30;;;9.50;82.00;;;;;;5011203;28;20529;-74
2022/10/04 05:45:18;;;;;;;6.80;4.10;;;9.50;82.00;;;;;;5021266;28;20459;-74
2022/10/04 05:47:49;;;;;;;7.15;4.05;;;9.60;82.00;;;;;;5025895;28;21061;-73
2022/10/04 05:50:20;;;;;;;7.80;4.27;;;9.60;82.10;;;;;;5020945;28;20213;-74
2022/10/04 05:52:51;;;;;;;6.20;3.70;;;9.60;82.10;;;;;;5025163;28;20510;-72
2022/10/04 05:55:27;;;;;;;9.03;3.60;;;9.60;82.10;;;;;;5024367;28;20521;-73
2022/10/04 05:58:25;;;;;;;7.03;3.63;;;9.60;82.10;;;;;;5022996;28;20483;-73
2022/10/04 06:01:15;;;;;;;6.70;3.50;;;9.70;82.10;;;;;;5022095;28;20467;-73
2022/10/04 06:04:01;;;;;;;9.40;4.40;;;9.70;82.10;;;;;;5021340;28;20468;-74
2022/10/04 06:06:38;;;;;;;6.23;4.00;;;9.70;82.10;;;;;;5016168;28;20464;-74
2022/10/04 06:09:13;;;;;;;12.53;6.20;;;9.70;82.10;;;;;;5026456;28;20551;-74
2022/10/04 06:11:53;;;;;;;21.50;6.47;;;9.80;82.10;;;;;;5024777;28;20868;-74
2022/10/04 06:15:05;;;;;;;16.73;4.60;;;9.80;82.10;;;;;;5025143;28;20502;-73
2022/10/04 06:18:05;;;;;;;32.27;5.60;;;9.80;82.10;;;;;;4986489;28;21052;-74
2022/10/04 06:20:53;;;;;;;9.85;4.57;;;9.90;81.90;;;;;;5023708;28;20467;-74
2022/10/04 06:23:24;;;;;;;9.17;4.60;;;9.80;81.90;;;;;;5024982;28;20221;-73
2022/10/04 06:25:56;;;;;;;9.53;4.93;;;9.80;81.90;;;;;;5025355;28;20545;-73
2022/10/04 06:28:31;;;;;;;8.80;4.43;;;9.80;82.10;;;;;;5025850;28;20494;-73
2022/10/04 06:31:31;;;;;;;15.17;5.77;;;9.80;82.10;;;;;;5021037;28;20463;-75
2022/10/04 06:34:27;;;;;;;30.83;11.10;;;9.80;82.30;;;;;;5021200;28;20451;-76
2022/10/04 06:37:12;;;;;;;14.67;9.23;;;9.80;82.30;;;;;;5025152;28;20502;-75
2022/10/04 06:40:12;;;;;;;25.10;13.47;;;9.80;82.10;;;;;;5023334;28;20569;-76
2022/10/04 06:42:55;;;;;;;103.05;38.70;;;9.80;82.30;;;;;;5021510;28;20551;-76
2022/10/04 06:45:37;;;;;;;35.97;15.80;;;9.80;82.30;;;;;;5018976;28;20282;-77
2022/10/04 06:48:32;;;;;;;21.60;9.80;;;9.80;82.10;;;;;;5023967;28;20575;-75
2022/10/04 06:51:12;;;;;;;14.10;8.13;;;9.80;82.30;;;;;;5021995;28;20463;-75
2022/10/04 06:53:52;;;;;;;13.00;7.27;;;9.80;82.30;;;;;;5020286;28;20463;-75
2022/10/04 06:56:38;;;;;;;29.57;12.70;;;9.80;82.40;;;;;;5027201;28;20458;-75
2022/10/04 06:59:38;;;;;;;18.43;9.00;;;9.80;82.40;;;;;;5025088;28;20721;-75
2022/10/04 07:02:12;;;;;;;11.23;6.67;;;9.80;82.40;;;;;;5029675;28;20505;-75
2022/10/04 07:04:49;;;;;;;37.33;16.20;;;9.80;82.50;;;;;;5026000;28;20501;-75
2022/10/04 07:07:38;;;;;;;23.47;12.50;;;9.90;82.50;;;;;;5024192;28;20486;-76
2022/10/04 07:10:24;;;;;;;19.83;12.70;;;9.90;82.50;;;;;;5021370;28;21048;-75
2022/10/04 07:12:59;;;;;;;13.80;9.40;;;10.00;82.50;;;;;;5025741;28;20458;-76
2022/10/04 07:15:33;;;;;;;7.77;5.50;;;10.00;82.50;;;;;;5029886;28;20451;-75
2022/10/04 07:18:08;;;;;;;54.83;23.57;;;10.10;82.50;;;;;;5028766;28;20578;-77
2022/10/04 07:20:38;;;;;;;22.87;9.87;;;10.10;82.50;;;;;;5028511;28;20456;-76
2022/10/04 07:23:13;;;;;;;11.30;7.00;;;10.10;82.40;;;;;;5030625;28;20452;-74
2022/10/04 07:25:46;;;;;;;13.20;6.03;;;10.10;82.50;;;;;;5029617;28;20521;-75
2022/10/04 07:31:11;;;;;;;9.83;5.07;;;10.20;82.40;;;;;;5027342;28;20465;-76
2022/10/04 07:33:44;;;;;;;10.07;5.80;;;10.20;82.50;;;;;;5030312;28;20447;-75
2022/10/04 07:36:18;;;;;;;15.57;7.53;;;10.20;82.50;;;;;;5028279;28;20608;-75
2022/10/04 07:38:53;;;;;;;11.00;6.77;;;10.30;82.50;;;;;;5027927;28;20495;-75
2022/10/04 07:41:26;;;;;;;7.67;4.90;;;10.30;82.50;;;;;;5025796;28;20468;-75
2022/10/04 07:43:59;;;;;;;7.80;4.53;;;10.30;82.30;;;;;;5028306;28;21168;-75
2022/10/04 07:46:43;;;;;;;8.20;4.33;;;10.30;82.40;;;;;;5027085;28;21025;-75
2022/10/04 07:49:16;;;;;;;8.07;4.97;;;10.30;82.60;;;;;;5044361;28;20463;-76
2022/10/04 07:52:08;;;;;;;7.47;5.00;;;10.40;82.50;;;;;;5025131;28;20459;-75
2022/10/04 07:54:40;;;;;;;7.47;4.53;;;10.40;82.50;;;;;;5029772;28;21161;-75
2022/10/04 07:57:17;;;;;;;7.77;4.97;;;10.40;82.40;;;;;;5020611;28;20916;-77
2022/10/04 07:59:53;;;;;;;8.60;4.80;;;10.50;82.60;;;;;;5029372;28;21436;-75
2022/10/04 08:02:29;;;;;;;15.23;6.40;;;10.50;82.60;;;;;;5025181;28;20490;-76
2022/10/04 08:05:09;;;;;;;10.57;6.03;;;10.60;82.60;;;;;;5026374;28;20467;-76
2022/10/04 08:07:49;;;;;;;12.90;6.30;;;10.60;82.70;;;;;;5024704;28;20529;-76
2022/10/04 08:10:26;;;;;;;19.83;9.87;;;10.70;82.70;;;;;;5029351;28;20528;-76
2022/10/04 08:13:04;;;;;;;18.30;7.23;;;10.70;82.80;;;;;;5019058;28;20471;-75
2022/10/04 08:15:37;;;;;;;8.27;5.20;;;10.80;82.70;;;;;;5025575;28;20490;-74
2022/10/04 08:18:18;;;;;;;12.20;6.67;;;10.90;82.70;;;;;;5028180;28;20464;-75
2022/10/04 08:20:50;;;;;;;10.57;6.30;;;10.90;82.70;;;;;;5027387;28;21022;-74
2022/10/04 08:23:39;;;;;;;14.20;7.83;;;11.00;82.50;;;;;;5023876;28;20448;-75
2022/10/04 08:26:39;;;;;;;15.97;7.10;;;11.00;82.60;;;;;;5029345;28;20984;-75
2022/10/04 08:29:46;;;;;;;12.03;5.97;;;11.00;82.50;;;;;;5022968;28;20465;-76
2022/10/04 08:32:26;;;;;;;13.13;6.23;;;11.10;82.60;;;;;;5046896;28;20452;-75
2022/10/04 08:35:11;;;;;;;35.43;8.30;;;11.10;82.60;;;;;;5021799;28;21272;-75
2022/10/04 08:37:52;;;;;;;10.10;6.77;;;11.10;82.60;;;;;;5029674;28;20981;-75
2022/10/04 08:41:01;;;;;;;9.27;6.27;;;11.20;82.70;;;;;;5025627;28;20525;-76
2022/10/04 08:43:54;;;;;;;10.37;6.80;;;11.20;82.90;;;;;;5018602;28;20904;-77
2022/10/04 08:46:54;;;;;;;9.77;7.53;;;11.30;82.90;;;;;;5023909;28;20467;-76
2022/10/04 08:49:40;;;;;;;9.87;6.63;;;11.30;82.90;;;;;;5022953;28;20456;-76
2022/10/04 08:52:28;;;;;;;14.47;7.03;;;11.40;83.00;;;;;;5021278;28;20518;-76
2022/10/04 08:55:33;;;;;;;13.57;6.87;;;11.50;83.00;;;;;;5026263;28;20470;-76
2022/10/04 08:58:12;;;;;;;12.33;8.30;;;11.50;83.00;;;;;;5026575;28;21057;-76
2022/10/04 09:01:11;;;;;;;11.03;7.40;;;11.50;83.00;;;;;;5026748;28;20460;-76
2022/10/04 09:04:15;;;;;;;10.77;7.50;;;11.60;83.00;;;;;;5024771;28;20454;-75
2022/10/04 09:07:00;;;;;;;13.70;8.00;;;11.60;83.10;;;;;;5037154;28;20484;-77
2022/10/04 09:09:56;;;;;;;13.43;7.53;;;11.60;83.10;;;;;;5027127;28;20452;-75
2022/10/04 09:12:52;;;;;;;17.43;7.93;;;11.60;83.10;;;;;;5025172;28;20467;-77
2022/10/04 09:15:38;;;;;;;10.33;7.07;;;11.70;83.20;;;;;;4996612;28;21044;-76
2022/10/04 09:18:22;;;;;;;14.97;8.10;;;11.70;83.20;;;;;;5027623;28;21173;-76
2022/10/04 09:20:57;;;;;;;15.40;8.40;;;11.70;83.20;;;;;;5026366;28;20463;-77
2022/10/04 09:23:48;;;;;;;12.70;8.37;;;11.70;83.30;;;;;;5027395;28;20447;-75
2022/10/04 09:26:22;;;;;;;12.17;7.87;;;11.80;83.40;;;;;;5023430;28;20494;-76
2022/10/04 09:29:26;;;;;;;14.30;9.00;;;11.80;83.60;;;;;;5029601;28;20465;-76
2022/10/04 09:32:33;;;;;;;14.13;9.50;;;11.90;83.60;;;;;;5021788;28;20805;-76
2022/10/04 09:35:28;;;;;;;13.63;8.60;;;11.90;83.70;;;;;;5030737;28;20444;-76
2022/10/04 09:38:19;;;;;;;17.53;7.93;;;12.00;83.80;;;;;;5013188;28;20483;-75
2022/10/04 09:41:05;;;;;;;15.47;8.30;;;12.10;83.80;;;;;;5023646;28;20460;-76
2022/10/04 09:44:16;;;;;;;13.33;9.33;;;12.10;83.80;;;;;;5017788;28;20519;-75
2022/10/04 09:47:24;;;;;;;18.57;9.37;;;12.20;83.90;;;;;;5043239;28;20476;-75
2022/10/04 09:50:30;;;;;;;12.77;7.73;;;12.20;84.10;;;;;;5015140;28;20529;-75
2022/10/04 09:53:13;;;;;;;11.10;7.00;;;12.30;84.10;;;;;;5024735;28;21039;-77
2022/10/04 09:55:54;;;;;;;15.07;8.57;;;12.30;84.40;;;;;;5028618;28;20517;-77
2022/10/04 09:58:47;;;;;;;11.10;5.83;;;12.40;84.30;;;;;;5025836;28;20470;-77
2022/10/04 10:01:23;;;;;;;10.40;6.37;;;12.50;84.40;;;;;;5017243;28;20471;-77
2022/10/04 10:04:07;;;;;;;11.00;5.90;;;12.60;84.40;;;;;;5021776;28;20487;-76
2022/10/04 10:06:55;;;;;;;12.97;5.40;;;12.70;84.50;;;;;;5028124;28;20513;-76
2022/10/04 10:15:23;;;;;;;8.73;4.00;;;12.90;84.60;;;;;;5026506;28;20506;-77
2022/10/04 10:18:00;;;;;;;6.73;3.10;;;13.00;84.60;;;;;;5017043;28;20614;-76
2022/10/04 10:20:39;;;;;;;6.97;3.40;;;13.10;84.60;;;;;;5022120;28;20457;-77
2022/10/04 10:23:52;;;;;;;12.20;4.17;;;13.20;84.40;;;;;;5027410;28;20514;-77
2022/10/04 10:26:49;;;;;;;11.97;4.10;;;13.30;84.30;;;;;;4999572;28;20496;-77
2022/10/04 10:29:53;;;;;;;11.33;3.47;;;13.40;84.20;;;;;;5025917;28;20499;-75
2022/10/04 10:33:11;;;;;;;8.30;3.70;;;13.50;84.20;;;;;;5012838;28;20467;-77
2022/10/04 10:35:53;;;;;;;6.93;3.47;;;13.60;84.00;;;;;;5024451;28;20456;-77
2022/10/04 10:38:32;;;;;;;11.87;3.57;;;13.60;83.90;;;;;;5025782;28;20476;-77
2022/10/04 10:41:37;;;;;;;10.10;3.43;;;13.70;83.80;;;;;;5024835;28;20486;-77
2022/10/04 10:44:25;;;;;;;13.80;3.10;;;13.80;83.80;;;;;;5022958;28;20961;-78
2022/10/04 10:47:05;;;;;;;7.70;2.90;;;13.90;83.70;;;;;;5024413;28;21039;-78
2022/10/04 10:49:55;;;;;;;11.37;4.00;;;13.90;83.80;;;;;;5030320;28;20455;-77
2022/10/04 10:52:58;;;;;;;11.07;3.67;;;14.00;83.70;;;;;;5018212;28;20461;-76
2022/10/04 10:55:34;;;;;;;6.53;2.73;;;14.10;83.40;;;;;;5002821;28;20466;-78
2022/10/04 10:58:39;;;;;;;8.93;3.07;;;14.10;83.60;;;;;;5028720;28;20487;-78
2022/10/04 11:01:28;;;;;;;8.07;3.03;;;14.20;83.20;;;;;;5027906;28;20472;-78
2022/10/04 11:04:34;;;;;;;8.30;3.30;;;14.20;83.10;;;;;;5028981;28;20490;-78
2022/10/04 11:07:43;;;;;;;6.43;2.40;;;14.20;83.00;;;;;;5028808;28;20677;-78
2022/10/04 11:10:32;;;;;;;8.47;3.00;;;14.30;82.80;;;;;;5020214;28;20973;-78
2022/10/04 11:13:33;;;;;;;11.53;3.00;;;14.30;82.80;;;;;;5028037;28;20474;-78
2022/10/04 11:16:38;;;;;;;7.37;2.70;;;14.40;82.60;;;;;;4998477;28;20464;-78
2022/10/04 11:19:49;;;;;;;6.80;2.93;;;14.50;82.50;;;;;;5018157;28;20475;-78
2022/10/04 11:22:56;;;;;;;7.03;3.27;;;14.50;82.30;;;;;;5033135;28;20470;-77
2022/10/04 11:25:44;;;;;;;6.70;2.30;;;14.60;82.30;;;;;;5030967;28;21004;-78
2022/10/04 11:28:17;;;;;;;9.07;3.77;;;14.60;82.30;;;;;;5030350;28;20479;-77
2022/10/04 11:31:42;;;;;;;12.63;3.30;;;14.70;82.10;;;;;;5027279;28;21424;-78
2022/10/04 11:34:47;;;;;;;10.50;2.90;;;14.70;81.70;;;;;;4917274;28;20455;-78
2022/10/04 11:37:21;;;;;;;9.03;3.30;;;14.70;81.40;;;;;;5029041;28;20575;-77
2022/10/04 11:40:04;;;;;;;11.03;3.30;;;14.80;81.50;;;;;;5031048;28;20486;-78
2022/10/04 11:42:53;;;;;;;9.70;3.53;;;14.80;81.40;;;;;;5026333;28;20683;-77
2022/10/04 11:45:54;;;;;;;14.20;3.80;;;14.80;81.30;;;;;;5029294;28;20510;-78
2022/10/04 11:48:37;;;;;;;10.93;4.27;;;14.90;81.10;;;;;;5028156;28;20533;-77
2022/10/04 11:51:36;;;;;;;11.83;3.33;;;14.90;81.00;;;;;;5030719;28;20455;-78
2022/10/04 11:54:46;;;;;;;7.47;2.80;;;15.00;80.90;;;;;;5029453;28;20494;-78
2022/10/04 11:57:26;;;;;;;7.90;2.97;;;15.00;80.90;;;;;;5015643;28;20483;-78
2022/10/04 12:00:02;;;;;;;11.20;3.70;;;15.10;80.90;;;;;;5028886;28;20501;-76
2022/10/04 12:03:14;;;;;;;7.90;3.70;;;15.10;80.50;;;;;;5027940;28;20495;-78
2022/10/04 12:06:02;;;;;;;12.67;5.33;;;15.20;80.30;;;;;;5025149;28;20574;-78
2022/10/04 12:08:41;;;;;;;6.33;2.73;;;15.20;80.20;;;;;;5024094;28;20473;-77
2022/10/04 12:12:35;;;;;;;12.37;5.40;;;15.30;80.10;;;;;;5026392;28;20459;-78
2022/10/04 12:14:37;;;;;;;9.80;3.70;;;15.40;79.70;;;;;;5020959;28;20553;-79
2022/10/04 12:18:04;;;;;;;6.53;2.97;;;15.50;79.70;;;;;;5028175;28;20476;-79
2022/10/04 12:20:55;;;;;;;7.40;2.70;;;15.60;79.30;;;;;;5014476;28;20973;-77
2022/10/04 12:23:49;;;;;;;8.23;3.00;;;15.60;78.90;;;;;;5027296;28;20463;-79
2022/10/04 12:26:47;;;;;;;6.20;2.73;;;15.70;78.80;;;;;;5027396;28;20829;-77
2022/10/04 12:30:00;;;;;;;6.40;2.40;;;15.70;78.90;;;;;;5031187;28;20459;-78
2022/10/04 12:32:34;;;;;;;7.20;2.63;;;15.80;78.70;;;;;;5024313;28;20459;-78
2022/10/04 12:35:16;;;;;;;5.93;2.57;;;15.80;78.60;;;;;;5026555;28;20981;-77
2022/10/04 12:38:15;;;;;;;7.53;2.53;;;15.80;78.40;;;;;;5026585;28;20673;-77
2022/10/04 12:40:51;;;;;;;11.23;3.30;;;15.80;78.00;;;;;;5026909;28;20452;-78
2022/10/04 12:43:29;;;;;;;8.17;2.43;;;15.80;78.00;;;;;;5026130;28;20460;-79
2022/10/04 12:46:13;;;;;;;7.40;2.90;;;15.80;78.00;;;;;;4987300;28;20554;-79
2022/10/04 12:49:02;;;;;;;7.03;2.40;;;15.90;78.00;;;;;;4998434;28;20932;-77
2022/10/04 12:51:52;;;;;;;6.57;3.00;;;15.90;77.80;;;;;;5024755;28;20536;-77
2022/10/04 12:54:38;;;;;;;9.63;2.80;;;16.00;77.70;;;;;;5025047;28;20472;-78
2022/10/04 12:57:24;;;;;;;5.23;2.20;;;16.00;77.60;;;;;;5024299;28;20537;-78
2022/10/04 13:00:03;;;;;;;6.43;2.63;;;16.00;77.20;;;;;;5021853;28;20479;-78
2022/10/04 13:02:44;;;;;;;7.50;2.80;;;16.10;77.00;;;;;;5026085;28;20475;-79
2022/10/04 13:05:21;;;;;;;5.43;2.70;;;16.10;76.90;;;;;;5026384;28;20480;-79
2022/10/04 13:08:20;;;;;;;7.70;2.97;;;16.10;76.90;;;;;;5020947;28;20487;-78
2022/10/04 13:11:09;;;;;;;5.93;2.60;;;16.20;76.90;;;;;;5018268;28;21040;-78
2022/10/04 13:14:05;;;;;;;13.70;3.77;;;16.10;76.60;;;;;;5014875;28;21052;-79
2022/10/04 13:16:47;;;;;;;7.57;3.20;;;16.20;76.50;;;;;;5023581;28;20463;-78
2022/10/04 13:19:41;;;;;;;5.97;3.00;;;16.20;76.40;;;;;;5022409;28;20547;-78
2022/10/04 13:22:45;;;;;;;6.40;2.80;;;16.20;76.60;;;;;;5022144;28;20591;-77
2022/10/04 13:26:05;;;;;;;6.20;2.73;;;16.30;76.30;;;;;;4973431;28;20457;-79
2022/10/04 13:28:43;;;;;;;5.33;2.60;;;16.30;76.20;;;;;;5021448;28;20498;-78
2022/10/04 13:31:22;;;;;;;6.50;2.60;;;16.40;76.20;;;;;;5025212;28;20463;-80
2022/10/04 13:34:00;;;;;;;9.02;3.40;;;16.40;76.00;;;;;;5022194;28;20432;-80
2022/10/04 13:36:42;;;;;;;12.70;2.47;;;16.60;74.70;;;;;;5024152;28;20197;-79
2022/10/04 13:39:26;;;;;;;7.80;2.63;;;16.50;75.00;;;;;;5021365;28;20437;-79
2022/10/04 13:42:11;;;;;;;7.97;2.95;;;16.60;74.60;;;;;;5037718;28;20447;-79
2022/10/04 13:45:00;;;;;;;9.73;2.70;;;16.60;74.70;;;;;;5023501;28;20234;-80
2022/10/04 13:47:51;;;;;;;6.60;3.10;;;16.60;74.90;;;;;;5019994;28;20492;-82
2022/10/04 13:50:49;;;;;;;9.00;2.73;;;16.70;75.00;;;;;;5025128;28;20865;-80
2022/10/04 13:56:49;;;;;;;7.47;3.30;;;16.90;74.80;;;;;;5011092;28;21360;-78
2022/10/04 13:59:27;;;;;;;8.30;2.17;;;16.90;74.70;;;;;;5021282;28;21063;-79
2022/10/04 14:02:55;;;;;;;7.50;2.37;;;16.90;74.50;;;;;;5018673;28;20464;-78
2022/10/04 14:06:05;;;;;;;14.00;6.63;;;16.90;74.20;;;;;;5000417;28;20807;-79
2022/10/04 14:09:18;;;;;;;116.77;46.07;;;16.80;74.10;;;;;;5019800;28;20475;-78
2022/10/04 14:12:25;;;;;;;52.83;24.43;;;16.80;74.00;;;;;;5011851;28;20586;-77
2022/10/04 14:15:41;;;;;;;15.20;5.43;;;16.80;73.90;;;;;;5026198;28;20996;-78